sensor_id;sensor_type;location;lat;lon;timestamp;P1;durP1;ratioP1;P2;durP2;ratioP2
7047;SDS011;3565;53.254;10.352;2024-03-02T00:03:45;40.20;;;18.80;;
7047;SDS011;3565;53.254;10.352;2024-03-02T00:08:52;36.37;;;18.17;;
7047;SDS011;3565;53.254;10.352;2024-03-02T00:14:03;32.23;;;16.87;;
7047;SDS011;3565;53.254;10.352;2024-03-02T00:16:32;35.30;;;19.10;;
7047;SDS011;3565;53.254;10.352;2024-03-02T00:21:40;41.97;;;19.30;;
7047;SDS011;3565;53.254;10.352;2024-03-02T00:24:12;38.77;;;20.20;;
7047;SDS011;3565;53.254;10.352;2024-03-02T00:26:55;40.50;;;19.43;;
7047;SDS011;3565;53.254;10.352;2024-03-02T00:32:01;38.80;;;19.50;;
7047;SDS011;3565;53.254;10.352;2024-03-02T00:34:30;42.67;;;20.57;;
7047;SDS011;3565;53.254;10.352;2024-03-02T00:39:37;38.20;;;19.67;;
7047;SDS011;3565;53.254;10.352;2024-03-02T00:42:06;36.37;;;18.97;;
7047;SDS011;3565;53.254;10.352;2024-03-02T00:44:44;45.13;;;20.77;;
7047;SDS011;3565;53.254;10.352;2024-03-02T00:49:51;40.27;;;21.10;;
7047;SDS011;3565;53.254;10.352;2024-03-02T00:52:20;37.33;;;19.93;;
7047;SDS011;3565;53.254;10.352;2024-03-02T00:54:49;43.17;;;20.77;;
7047;SDS011;3565;53.254;10.352;2024-03-02T00:59:55;42.27;;;21.27;;
7047;SDS011;3565;53.254;10.352;2024-03-02T01:02:25;41.93;;;21.27;;
7047;SDS011;3565;53.254;10.352;2024-03-02T01:04:54;39.53;;;20.40;;
7047;SDS011;3565;53.254;10.352;2024-03-02T01:07:32;44.80;;;20.37;;
7047;SDS011;3565;53.254;10.352;2024-03-02T01:12:39;44.43;;;20.90;;
7047;SDS011;3565;53.254;10.352;2024-03-02T01:15:08;42.40;;;20.57;;
7047;SDS011;3565;53.254;10.352;2024-03-02T01:17:37;41.27;;;20.63;;
7047;SDS011;3565;53.254;10.352;2024-03-02T01:20:16;41.17;;;21.20;;
7047;SDS011;3565;53.254;10.352;2024-03-02T01:22:46;40.07;;;20.97;;
7047;SDS011;3565;53.254;10.352;2024-03-02T01:25:15;41.27;;;21.30;;
7047;SDS011;3565;53.254;10.352;2024-03-02T01:30:21;44.20;;;21.53;;
7047;SDS011;3565;53.254;10.352;2024-03-02T01:32:50;39.53;;;20.17;;
7047;SDS011;3565;53.254;10.352;2024-03-02T01:35:18;43.70;;;21.43;;
7047;SDS011;3565;53.254;10.352;2024-03-02T01:40:24;47.27;;;21.63;;
7047;SDS011;3565;53.254;10.352;2024-03-02T01:42:54;42.87;;;22.03;;
7047;SDS011;3565;53.254;10.352;2024-03-02T01:45:24;41.80;;;21.23;;
7047;SDS011;3565;53.254;10.352;2024-03-02T01:50:31;38.87;;;20.63;;
7047;SDS011;3565;53.254;10.352;2024-03-02T01:53:00;47.70;;;21.50;;
7047;SDS011;3565;53.254;10.352;2024-03-02T01:55:29;48.23;;;21.57;;
7047;SDS011;3565;53.254;10.352;2024-03-02T01:58:00;39.10;;;20.97;;
7047;SDS011;3565;53.254;10.352;2024-03-02T02:03:07;45.53;;;21.70;;
7047;SDS011;3565;53.254;10.352;2024-03-02T02:05:36;46.43;;;22.47;;
7047;SDS011;3565;53.254;10.352;2024-03-02T02:10:42;48.80;;;22.43;;
7047;SDS011;3565;53.254;10.352;2024-03-02T02:13:12;42.10;;;22.43;;
7047;SDS011;3565;53.254;10.352;2024-03-02T02:15:41;45.63;;;21.27;;
7047;SDS011;3565;53.254;10.352;2024-03-02T02:20:47;42.83;;;20.67;;
7047;SDS011;3565;53.254;10.352;2024-03-02T02:23:17;41.40;;;20.63;;
7047;SDS011;3565;53.254;10.352;2024-03-02T02:25:47;41.83;;;20.87;;
7047;SDS011;3565;53.254;10.352;2024-03-02T02:30:54;45.33;;;21.70;;
7047;SDS011;3565;53.254;10.352;2024-03-02T02:33:23;45.73;;;21.13;;
7047;SDS011;3565;53.254;10.352;2024-03-02T02:35:52;41.20;;;21.60;;
7047;SDS011;3565;53.254;10.352;2024-03-02T02:40:58;41.90;;;21.57;;
7047;SDS011;3565;53.254;10.352;2024-03-02T02:43:27;48.37;;;21.27;;
7047;SDS011;3565;53.254;10.352;2024-03-02T02:45:56;42.77;;;21.33;;
7047;SDS011;3565;53.254;10.352;2024-03-02T02:51:05;42.47;;;21.10;;
7047;SDS011;3565;53.254;10.352;2024-03-02T02:53:34;44.07;;;21.13;;
7047;SDS011;3565;53.254;10.352;2024-03-02T02:56:06;42.97;;;21.37;;
7047;SDS011;3565;53.254;10.352;2024-03-02T02:58:35;40.47;;;21.37;;
7047;SDS011;3565;53.254;10.352;2024-03-02T03:03:41;41.27;;;21.53;;
7047;SDS011;3565;53.254;10.352;2024-03-02T03:06:10;47.57;;;21.60;;
7047;SDS011;3565;53.254;10.352;2024-03-02T03:08:48;38.10;;;21.00;;
7047;SDS011;3565;53.254;10.352;2024-03-02T03:11:17;40.67;;;21.40;;
7047;SDS011;3565;53.254;10.352;2024-03-02T03:13:46;42.97;;;21.43;;
7047;SDS011;3565;53.254;10.352;2024-03-02T03:18:52;50.87;;;22.97;;
7047;SDS011;3565;53.254;10.352;2024-03-02T03:21:21;40.83;;;22.00;;
7047;SDS011;3565;53.254;10.352;2024-03-02T03:23:50;39.43;;;20.40;;
7047;SDS011;3565;53.254;10.352;2024-03-02T03:28:56;43.97;;;21.20;;
7047;SDS011;3565;53.254;10.352;2024-03-02T03:31:25;41.23;;;20.83;;
7047;SDS011;3565;53.254;10.352;2024-03-02T03:33:54;43.40;;;20.37;;
7047;SDS011;3565;53.254;10.352;2024-03-02T03:39:04;42.93;;;20.97;;
7047;SDS011;3565;53.254;10.352;2024-03-02T03:41:33;44.70;;;22.57;;
7047;SDS011;3565;53.254;10.352;2024-03-02T03:44:02;41.07;;;20.57;;
7047;SDS011;3565;53.254;10.352;2024-03-02T03:46:40;41.60;;;21.47;;
7047;SDS011;3565;53.254;10.352;2024-03-02T03:51:46;38.93;;;19.93;;
7047;SDS011;3565;53.254;10.352;2024-03-02T03:54:15;43.23;;;22.43;;
7047;SDS011;3565;53.254;10.352;2024-03-02T03:56:44;42.87;;;21.63;;
7047;SDS011;3565;53.254;10.352;2024-03-02T04:01:50;44.73;;;22.00;;
7047;SDS011;3565;53.254;10.352;2024-03-02T04:04:20;43.87;;;21.13;;
7047;SDS011;3565;53.254;10.352;2024-03-02T04:09:26;41.43;;;21.47;;
7047;SDS011;3565;53.254;10.352;2024-03-02T04:11:55;44.57;;;21.47;;
7047;SDS011;3565;53.254;10.352;2024-03-02T04:14:24;40.57;;;21.30;;
7047;SDS011;3565;53.254;10.352;2024-03-02T04:19:30;45.10;;;21.47;;
7047;SDS011;3565;53.254;10.352;2024-03-02T04:21:59;40.30;;;21.07;;
7047;SDS011;3565;53.254;10.352;2024-03-02T04:24:28;37.67;;;20.47;;
7047;SDS011;3565;53.254;10.352;2024-03-02T04:26:57;44.03;;;21.30;;
7047;SDS011;3565;53.254;10.352;2024-03-02T04:32:13;38.53;;;20.57;;
7047;SDS011;3565;53.254;10.352;2024-03-02T04:34:42;40.07;;;20.17;;
7047;SDS011;3565;53.254;10.352;2024-03-02T04:37:11;42.43;;;20.97;;
7047;SDS011;3565;53.254;10.352;2024-03-02T04:42:18;44.63;;;21.63;;
7047;SDS011;3565;53.254;10.352;2024-03-02T04:44:47;39.23;;;19.87;;
7047;SDS011;3565;53.254;10.352;2024-03-02T04:47:16;39.57;;;21.13;;
7047;SDS011;3565;53.254;10.352;2024-03-02T04:49:45;45.03;;;21.13;;
7047;SDS011;3565;53.254;10.352;2024-03-02T04:54:51;40.37;;;19.47;;
7047;SDS011;3565;53.254;10.352;2024-03-02T04:57:38;35.67;;;19.77;;
7047;SDS011;3565;53.254;10.352;2024-03-02T05:02:46;37.93;;;19.90;;
7047;SDS011;3565;53.254;10.352;2024-03-02T05:05:15;38.83;;;18.93;;
7047;SDS011;3565;53.254;10.352;2024-03-02T05:07:44;37.80;;;20.80;;
7047;SDS011;3565;53.254;10.352;2024-03-02T05:12:50;41.03;;;20.33;;
7047;SDS011;3565;53.254;10.352;2024-03-02T05:15:25;37.77;;;20.07;;
7047;SDS011;3565;53.254;10.352;2024-03-02T05:17:54;41.07;;;21.57;;
7047;SDS011;3565;53.254;10.352;2024-03-02T05:23:03;43.13;;;20.80;;
7047;SDS011;3565;53.254;10.352;2024-03-02T05:25:32;39.27;;;20.80;;
7047;SDS011;3565;53.254;10.352;2024-03-02T05:28:01;39.63;;;20.47;;
7047;SDS011;3565;53.254;10.352;2024-03-02T05:30:31;39.50;;;19.97;;
7047;SDS011;3565;53.254;10.352;2024-03-02T05:33:00;36.57;;;19.77;;
7047;SDS011;3565;53.254;10.352;2024-03-02T05:35:28;37.23;;;19.60;;
7047;SDS011;3565;53.254;10.352;2024-03-02T05:37:57;38.03;;;19.37;;
7047;SDS011;3565;53.254;10.352;2024-03-02T05:40:26;37.13;;;19.30;;
7047;SDS011;3565;53.254;10.352;2024-03-02T05:42:55;41.00;;;19.40;;
7047;SDS011;3565;53.254;10.352;2024-03-02T05:48:01;37.50;;;18.77;;
7047;SDS011;3565;53.254;10.352;2024-03-02T05:50:31;42.07;;;21.00;;
7047;SDS011;3565;53.254;10.352;2024-03-02T05:53:00;40.60;;;20.67;;
7047;SDS011;3565;53.254;10.352;2024-03-02T05:58:06;42.23;;;20.90;;
7047;SDS011;3565;53.254;10.352;2024-03-02T06:00:41;40.77;;;20.07;;
7047;SDS011;3565;53.254;10.352;2024-03-02T06:03:10;39.67;;;19.67;;
7047;SDS011;3565;53.254;10.352;2024-03-02T06:05:39;39.37;;;19.87;;
7047;SDS011;3565;53.254;10.352;2024-03-02T06:08:08;40.27;;;20.90;;
7047;SDS011;3565;53.254;10.352;2024-03-02T06:10:36;43.93;;;21.20;;
7047;SDS011;3565;53.254;10.352;2024-03-02T06:15:43;42.03;;;21.33;;
7047;SDS011;3565;53.254;10.352;2024-03-02T06:18:12;40.17;;;21.70;;
7047;SDS011;3565;53.254;10.352;2024-03-02T06:23:18;42.87;;;22.30;;
7047;SDS011;3565;53.254;10.352;2024-03-02T06:25:48;42.07;;;21.60;;
7047;SDS011;3565;53.254;10.352;2024-03-02T06:30:54;42.00;;;21.00;;
7047;SDS011;3565;53.254;10.352;2024-03-02T06:33:23;41.57;;;20.67;;
7047;SDS011;3565;53.254;10.352;2024-03-02T06:35:53;42.40;;;21.27;;
7047;SDS011;3565;53.254;10.352;2024-03-02T06:41:02;42.77;;;20.83;;
7047;SDS011;3565;53.254;10.352;2024-03-02T06:43:31;43.93;;;21.10;;
7047;SDS011;3565;53.254;10.352;2024-03-02T06:46:01;39.70;;;21.53;;
7047;SDS011;3565;53.254;10.352;2024-03-02T06:48:31;45.63;;;23.03;;
7047;SDS011;3565;53.254;10.352;2024-03-02T06:53:48;42.57;;;21.83;;
7047;SDS011;3565;53.254;10.352;2024-03-02T06:56:18;42.03;;;21.50;;
7047;SDS011;3565;53.254;10.352;2024-03-02T06:58:48;40.13;;;21.23;;
7047;SDS011;3565;53.254;10.352;2024-03-02T07:03:57;34.73;;;19.13;;
7047;SDS011;3565;53.254;10.352;2024-03-02T07:06:26;46.50;;;22.13;;
7047;SDS011;3565;53.254;10.352;2024-03-02T07:08:56;38.03;;;21.80;;
7047;SDS011;3565;53.254;10.352;2024-03-02T07:14:02;43.40;;;21.87;;
7047;SDS011;3565;53.254;10.352;2024-03-02T07:16:31;39.60;;;21.30;;
7047;SDS011;3565;53.254;10.352;2024-03-02T07:19:00;42.37;;;20.60;;
7047;SDS011;3565;53.254;10.352;2024-03-02T07:24:07;42.70;;;23.07;;
7047;SDS011;3565;53.254;10.352;2024-03-02T07:26:39;38.67;;;20.93;;
7047;SDS011;3565;53.254;10.352;2024-03-02T07:29:09;38.67;;;20.43;;
7047;SDS011;3565;53.254;10.352;2024-03-02T07:31:38;39.90;;;21.20;;
7047;SDS011;3565;53.254;10.352;2024-03-02T07:34:07;38.60;;;20.77;;
7047;SDS011;3565;53.254;10.352;2024-03-02T07:36:36;36.83;;;20.03;;
7047;SDS011;3565;53.254;10.352;2024-03-02T07:39:05;38.77;;;20.43;;
7047;SDS011;3565;53.254;10.352;2024-03-02T07:41:35;39.67;;;20.73;;
7047;SDS011;3565;53.254;10.352;2024-03-02T07:44:04;38.37;;;20.53;;
7047;SDS011;3565;53.254;10.352;2024-03-02T07:49:10;36.13;;;19.80;;
7047;SDS011;3565;53.254;10.352;2024-03-02T07:51:40;37.67;;;20.23;;
7047;SDS011;3565;53.254;10.352;2024-03-02T07:54:09;37.97;;;20.63;;
7047;SDS011;3565;53.254;10.352;2024-03-02T07:59:15;38.93;;;20.63;;
7047;SDS011;3565;53.254;10.352;2024-03-02T08:01:44;39.23;;;19.30;;
7047;SDS011;3565;53.254;10.352;2024-03-02T08:04:13;42.37;;;21.00;;
7047;SDS011;3565;53.254;10.352;2024-03-02T08:06:52;36.40;;;20.20;;
7047;SDS011;3565;53.254;10.352;2024-03-02T08:11:59;35.67;;;19.13;;
7047;SDS011;3565;53.254;10.352;2024-03-02T08:14:28;39.13;;;20.50;;
7047;SDS011;3565;53.254;10.352;2024-03-02T08:19:34;34.87;;;18.80;;
7047;SDS011;3565;53.254;10.352;2024-03-02T08:22:05;35.73;;;19.70;;
7047;SDS011;3565;53.254;10.352;2024-03-02T08:24:34;31.70;;;18.83;;
7047;SDS011;3565;53.254;10.352;2024-03-02T08:29:41;32.77;;;17.80;;
7047;SDS011;3565;53.254;10.352;2024-03-02T08:32:10;33.70;;;19.13;;
7047;SDS011;3565;53.254;10.352;2024-03-02T08:34:39;32.53;;;17.27;;
7047;SDS011;3565;53.254;10.352;2024-03-02T08:39:45;28.80;;;16.70;;
7047;SDS011;3565;53.254;10.352;2024-03-02T08:42:14;29.73;;;17.10;;
7047;SDS011;3565;53.254;10.352;2024-03-02T08:44:44;33.60;;;16.20;;
7047;SDS011;3565;53.254;10.352;2024-03-02T08:49:50;26.07;;;16.13;;
7047;SDS011;3565;53.254;10.352;2024-03-02T08:52:19;25.17;;;16.00;;
7047;SDS011;3565;53.254;10.352;2024-03-02T08:54:48;24.63;;;14.80;;
7047;SDS011;3565;53.254;10.352;2024-03-02T08:59:54;21.03;;;14.30;;
7047;SDS011;3565;53.254;10.352;2024-03-02T09:02:23;25.67;;;15.53;;
7047;SDS011;3565;53.254;10.352;2024-03-02T09:04:52;22.53;;;14.10;;
7047;SDS011;3565;53.254;10.352;2024-03-02T09:07:31;22.07;;;14.70;;
7047;SDS011;3565;53.254;10.352;2024-03-02T09:10:00;23.80;;;14.53;;
7047;SDS011;3565;53.254;10.352;2024-03-02T09:15:07;24.23;;;14.80;;
7047;SDS011;3565;53.254;10.352;2024-03-02T09:17:36;22.57;;;13.70;;
7047;SDS011;3565;53.254;10.352;2024-03-02T09:22:44;19.33;;;13.10;;
7047;SDS011;3565;53.254;10.352;2024-03-02T09:25:15;23.10;;;13.37;;
7047;SDS011;3565;53.254;10.352;2024-03-02T09:27:44;20.50;;;13.30;;
7047;SDS011;3565;53.254;10.352;2024-03-02T09:32:51;21.20;;;13.73;;
7047;SDS011;3565;53.254;10.352;2024-03-02T09:35:21;21.30;;;13.07;;
7047;SDS011;3565;53.254;10.352;2024-03-02T09:37:59;19.53;;;12.23;;
7047;SDS011;3565;53.254;10.352;2024-03-02T09:43:07;19.80;;;11.33;;
7047;SDS011;3565;53.254;10.352;2024-03-02T09:45:36;19.70;;;12.43;;
7047;SDS011;3565;53.254;10.352;2024-03-02T09:50:43;19.07;;;11.80;;
7047;SDS011;3565;53.254;10.352;2024-03-02T09:53:13;19.07;;;12.27;;
7047;SDS011;3565;53.254;10.352;2024-03-02T09:55:46;18.20;;;11.13;;
7047;SDS011;3565;53.254;10.352;2024-03-02T10:00:52;17.10;;;11.10;;
7047;SDS011;3565;53.254;10.352;2024-03-02T10:06:17;17.67;;;10.97;;
7047;SDS011;3565;53.254;10.352;2024-03-02T10:08:47;16.33;;;10.90;;
7047;SDS011;3565;53.254;10.352;2024-03-02T10:14:06;16.90;;;10.53;;
7047;SDS011;3565;53.254;10.352;2024-03-02T10:19:15;14.37;;;9.63;;
7047;SDS011;3565;53.254;10.352;2024-03-02T10:21:45;17.60;;;9.43;;
7047;SDS011;3565;53.254;10.352;2024-03-02T10:24:18;14.40;;;9.27;;
7047;SDS011;3565;53.254;10.352;2024-03-02T10:29:30;19.10;;;12.00;;
7047;SDS011;3565;53.254;10.352;2024-03-02T10:32:01;19.27;;;11.67;;
7047;SDS011;3565;53.254;10.352;2024-03-02T10:37:07;18.43;;;12.47;;
7047;SDS011;3565;53.254;10.352;2024-03-02T10:39:37;19.47;;;12.47;;
7047;SDS011;3565;53.254;10.352;2024-03-02T10:42:07;19.20;;;12.53;;
7047;SDS011;3565;53.254;10.352;2024-03-02T10:47:13;18.70;;;12.13;;
7047;SDS011;3565;53.254;10.352;2024-03-02T10:49:42;18.80;;;11.63;;
7047;SDS011;3565;53.254;10.352;2024-03-02T10:52:22;17.43;;;11.77;;
7047;SDS011;3565;53.254;10.352;2024-03-02T10:54:51;18.80;;;11.93;;
7047;SDS011;3565;53.254;10.352;2024-03-02T11:00:00;18.20;;;11.27;;
7047;SDS011;3565;53.254;10.352;2024-03-02T11:02:29;17.60;;;11.13;;
7047;SDS011;3565;53.254;10.352;2024-03-02T11:05:00;18.17;;;12.10;;
7047;SDS011;3565;53.254;10.352;2024-03-02T11:07:40;18.70;;;11.27;;
7047;SDS011;3565;53.254;10.352;2024-03-02T11:10:10;17.93;;;11.13;;
7047;SDS011;3565;53.254;10.352;2024-03-02T11:12:42;19.03;;;11.90;;
7047;SDS011;3565;53.254;10.352;2024-03-02T11:15:20;19.40;;;12.30;;
7047;SDS011;3565;53.254;10.352;2024-03-02T11:20:28;18.90;;;11.80;;
7047;SDS011;3565;53.254;10.352;2024-03-02T11:22:57;18.37;;;11.30;;
7047;SDS011;3565;53.254;10.352;2024-03-02T11:25:28;16.50;;;10.70;;
7047;SDS011;3565;53.254;10.352;2024-03-02T11:28:02;17.87;;;11.57;;
7047;SDS011;3565;53.254;10.352;2024-03-02T11:30:53;18.47;;;11.43;;
7047;SDS011;3565;53.254;10.352;2024-03-02T11:36:03;16.07;;;10.77;;
7047;SDS011;3565;53.254;10.352;2024-03-02T11:38:33;18.70;;;12.03;;
7047;SDS011;3565;53.254;10.352;2024-03-02T11:41:05;22.37;;;13.23;;
7047;SDS011;3565;53.254;10.352;2024-03-02T11:43:46;20.97;;;12.30;;
7047;SDS011;3565;53.254;10.352;2024-03-02T11:46:16;19.17;;;12.13;;
7047;SDS011;3565;53.254;10.352;2024-03-02T11:51:22;18.20;;;12.70;;
7047;SDS011;3565;53.254;10.352;2024-03-02T11:53:52;19.60;;;11.40;;
7047;SDS011;3565;53.254;10.352;2024-03-02T11:56:32;18.37;;;11.73;;
7047;SDS011;3565;53.254;10.352;2024-03-02T11:59:01;17.20;;;11.20;;
7047;SDS011;3565;53.254;10.352;2024-03-02T12:01:30;16.60;;;12.00;;
7047;SDS011;3565;53.254;10.352;2024-03-02T12:04:02;20.17;;;12.60;;
7047;SDS011;3565;53.254;10.352;2024-03-02T12:06:32;18.50;;;12.23;;
7047;SDS011;3565;53.254;10.352;2024-03-02T12:09:01;19.53;;;12.00;;
7047;SDS011;3565;53.254;10.352;2024-03-02T12:11:32;19.73;;;11.67;;
7047;SDS011;3565;53.254;10.352;2024-03-02T12:14:02;18.33;;;12.13;;
7047;SDS011;3565;53.254;10.352;2024-03-02T12:16:30;16.40;;;11.37;;
7047;SDS011;3565;53.254;10.352;2024-03-02T12:19:00;17.63;;;11.50;;
7047;SDS011;3565;53.254;10.352;2024-03-02T12:24:07;17.07;;;11.23;;
7047;SDS011;3565;53.254;10.352;2024-03-02T12:26:36;16.87;;;11.00;;
7047;SDS011;3565;53.254;10.352;2024-03-02T12:31:42;19.10;;;11.20;;
7047;SDS011;3565;53.254;10.352;2024-03-02T12:34:12;17.93;;;11.77;;
7047;SDS011;3565;53.254;10.352;2024-03-02T12:36:43;15.47;;;9.97;;
7047;SDS011;3565;53.254;10.352;2024-03-02T12:41:51;13.87;;;8.87;;
7047;SDS011;3565;53.254;10.352;2024-03-02T12:44:21;12.13;;;8.17;;
7047;SDS011;3565;53.254;10.352;2024-03-02T12:46:50;12.70;;;8.13;;
7047;SDS011;3565;53.254;10.352;2024-03-02T12:52:00;13.67;;;7.80;;
7047;SDS011;3565;53.254;10.352;2024-03-02T12:54:29;11.43;;;7.40;;
7047;SDS011;3565;53.254;10.352;2024-03-02T12:56:58;13.70;;;8.00;;
7047;SDS011;3565;53.254;10.352;2024-03-02T13:02:04;13.97;;;8.43;;
7047;SDS011;3565;53.254;10.352;2024-03-02T13:04:33;12.13;;;8.53;;
7047;SDS011;3565;53.254;10.352;2024-03-02T13:07:03;11.43;;;7.70;;
7047;SDS011;3565;53.254;10.352;2024-03-02T13:09:32;11.77;;;7.50;;
7047;SDS011;3565;53.254;10.352;2024-03-02T13:14:51;11.70;;;7.93;;
7047;SDS011;3565;53.254;10.352;2024-03-02T13:17:20;10.53;;;7.23;;
7047;SDS011;3565;53.254;10.352;2024-03-02T13:19:52;10.50;;;7.30;;
7047;SDS011;3565;53.254;10.352;2024-03-02T13:24:59;12.03;;;7.57;;
7047;SDS011;3565;53.254;10.352;2024-03-02T13:27:30;11.43;;;6.90;;
7047;SDS011;3565;53.254;10.352;2024-03-02T13:29:59;12.87;;;8.20;;
7047;SDS011;3565;53.254;10.352;2024-03-02T13:35:06;10.83;;;7.33;;
7047;SDS011;3565;53.254;10.352;2024-03-02T13:37:37;12.27;;;8.40;;
7047;SDS011;3565;53.254;10.352;2024-03-02T13:40:07;15.03;;;8.53;;
7047;SDS011;3565;53.254;10.352;2024-03-02T13:45:16;13.80;;;9.13;;
7047;SDS011;3565;53.254;10.352;2024-03-02T13:47:45;15.27;;;9.27;;
7047;SDS011;3565;53.254;10.352;2024-03-02T13:50:14;13.97;;;9.07;;
7047;SDS011;3565;53.254;10.352;2024-03-02T13:55:20;14.60;;;9.33;;
7047;SDS011;3565;53.254;10.352;2024-03-02T13:57:49;14.97;;;9.70;;
7047;SDS011;3565;53.254;10.352;2024-03-02T14:00:19;19.90;;;10.23;;
7047;SDS011;3565;53.254;10.352;2024-03-02T14:05:26;15.20;;;9.93;;
7047;SDS011;3565;53.254;10.352;2024-03-02T14:07:55;14.40;;;9.80;;
7047;SDS011;3565;53.254;10.352;2024-03-02T14:10:25;15.63;;;9.70;;
7047;SDS011;3565;53.254;10.352;2024-03-02T14:15:31;14.53;;;10.27;;
7047;SDS011;3565;53.254;10.352;2024-03-02T14:18:03;16.90;;;10.73;;
7047;SDS011;3565;53.254;10.352;2024-03-02T14:20:32;13.70;;;9.23;;
7047;SDS011;3565;53.254;10.352;2024-03-02T14:25:38;13.83;;;8.47;;
7047;SDS011;3565;53.254;10.352;2024-03-02T14:28:07;13.77;;;8.77;;
7047;SDS011;3565;53.254;10.352;2024-03-02T14:30:36;12.17;;;8.27;;
7047;SDS011;3565;53.254;10.352;2024-03-02T14:33:06;14.33;;;8.40;;
7047;SDS011;3565;53.254;10.352;2024-03-02T14:35:45;15.27;;;9.23;;
7047;SDS011;3565;53.254;10.352;2024-03-02T14:38:14;11.83;;;8.27;;
7047;SDS011;3565;53.254;10.352;2024-03-02T14:40:43;12.63;;;8.50;;
7047;SDS011;3565;53.254;10.352;2024-03-02T14:43:12;13.67;;;8.53;;
7047;SDS011;3565;53.254;10.352;2024-03-02T14:45:42;14.07;;;8.00;;
7047;SDS011;3565;53.254;10.352;2024-03-02T14:50:49;10.80;;;7.73;;
7047;SDS011;3565;53.254;10.352;2024-03-02T14:53:18;11.07;;;7.47;;
7047;SDS011;3565;53.254;10.352;2024-03-02T14:55:48;12.57;;;7.67;;
7047;SDS011;3565;53.254;10.352;2024-03-02T14:58:26;12.27;;;8.00;;
7047;SDS011;3565;53.254;10.352;2024-03-02T15:00:56;10.00;;;6.90;;
7047;SDS011;3565;53.254;10.352;2024-03-02T15:06:04;10.77;;;6.90;;
7047;SDS011;3565;53.254;10.352;2024-03-02T15:08:34;11.20;;;6.63;;
7047;SDS011;3565;53.254;10.352;2024-03-02T15:11:03;12.63;;;7.17;;
7047;SDS011;3565;53.254;10.352;2024-03-02T15:13:32;9.97;;;7.00;;
7047;SDS011;3565;53.254;10.352;2024-03-02T15:16:01;11.67;;;7.00;;
7047;SDS011;3565;53.254;10.352;2024-03-02T15:18:31;9.87;;;7.00;;
7047;SDS011;3565;53.254;10.352;2024-03-02T15:21:09;10.30;;;6.63;;
7047;SDS011;3565;53.254;10.352;2024-03-02T15:23:38;10.83;;;6.63;;
7047;SDS011;3565;53.254;10.352;2024-03-02T15:26:07;10.70;;;6.67;;
7047;SDS011;3565;53.254;10.352;2024-03-02T15:28:36;8.53;;;6.53;;
7047;SDS011;3565;53.254;10.352;2024-03-02T15:31:07;9.47;;;6.27;;
7047;SDS011;3565;53.254;10.352;2024-03-02T15:33:35;9.47;;;6.20;;
7047;SDS011;3565;53.254;10.352;2024-03-02T15:38:42;9.67;;;6.53;;
7047;SDS011;3565;53.254;10.352;2024-03-02T15:41:11;10.27;;;6.60;;
7047;SDS011;3565;53.254;10.352;2024-03-02T15:46:18;10.10;;;7.00;;
7047;SDS011;3565;53.254;10.352;2024-03-02T15:48:48;9.50;;;6.20;;
7047;SDS011;3565;53.254;10.352;2024-03-02T15:53:55;12.30;;;7.53;;
7047;SDS011;3565;53.254;10.352;2024-03-02T15:56:24;10.63;;;7.57;;
7047;SDS011;3565;53.254;10.352;2024-03-02T16:01:30;12.57;;;8.60;;
7047;SDS011;3565;53.254;10.352;2024-03-02T16:03:59;12.10;;;7.97;;
7047;SDS011;3565;53.254;10.352;2024-03-02T16:06:28;12.87;;;8.03;;
7047;SDS011;3565;53.254;10.352;2024-03-02T16:08:57;15.53;;;8.30;;
7047;SDS011;3565;53.254;10.352;2024-03-02T16:14:04;16.13;;;8.70;;
7047;SDS011;3565;53.254;10.352;2024-03-02T16:16:33;14.27;;;8.97;;
7047;SDS011;3565;53.254;10.352;2024-03-02T16:19:02;12.23;;;8.50;;
7047;SDS011;3565;53.254;10.352;2024-03-02T16:21:31;12.37;;;7.67;;
7047;SDS011;3565;53.254;10.352;2024-03-02T16:24:00;12.03;;;7.70;;
7047;SDS011;3565;53.254;10.352;2024-03-02T16:26:39;13.23;;;8.27;;
7047;SDS011;3565;53.254;10.352;2024-03-02T16:29:08;11.43;;;7.73;;
7047;SDS011;3565;53.254;10.352;2024-03-02T16:31:36;11.37;;;7.90;;
7047;SDS011;3565;53.254;10.352;2024-03-02T16:34:15;13.10;;;8.00;;
7047;SDS011;3565;53.254;10.352;2024-03-02T16:36:44;12.57;;;7.87;;
7047;SDS011;3565;53.254;10.352;2024-03-02T16:39:13;13.77;;;8.00;;
7047;SDS011;3565;53.254;10.352;2024-03-02T16:41:51;11.40;;;8.33;;
7047;SDS011;3565;53.254;10.352;2024-03-02T16:44:20;10.23;;;7.33;;
7047;SDS011;3565;53.254;10.352;2024-03-02T16:46:49;10.27;;;6.90;;
7047;SDS011;3565;53.254;10.352;2024-03-02T16:51:55;10.73;;;6.63;;
7047;SDS011;3565;53.254;10.352;2024-03-02T16:54:24;8.90;;;6.20;;
7047;SDS011;3565;53.254;10.352;2024-03-02T16:57:04;10.87;;;6.67;;
7047;SDS011;3565;53.254;10.352;2024-03-02T16:59:33;10.20;;;6.80;;
7047;SDS011;3565;53.254;10.352;2024-03-02T17:04:40;10.83;;;7.37;;
7047;SDS011;3565;53.254;10.352;2024-03-02T17:07:09;10.90;;;8.03;;
7047;SDS011;3565;53.254;10.352;2024-03-02T17:12:15;11.53;;;7.47;;
7047;SDS011;3565;53.254;10.352;2024-03-02T17:14:44;13.17;;;8.90;;
7047;SDS011;3565;53.254;10.352;2024-03-02T17:17:13;12.53;;;8.20;;
7047;SDS011;3565;53.254;10.352;2024-03-02T17:22:21;13.40;;;8.40;;
7047;SDS011;3565;53.254;10.352;2024-03-02T17:27:29;13.43;;;8.50;;
7047;SDS011;3565;53.254;10.352;2024-03-02T17:29:59;11.57;;;7.60;;
7047;SDS011;3565;53.254;10.352;2024-03-02T17:35:06;13.27;;;8.50;;
7047;SDS011;3565;53.254;10.352;2024-03-02T17:37:35;14.67;;;9.03;;
7047;SDS011;3565;53.254;10.352;2024-03-02T17:40:07;14.97;;;8.37;;
7047;SDS011;3565;53.254;10.352;2024-03-02T17:42:37;13.77;;;7.73;;
7047;SDS011;3565;53.254;10.352;2024-03-02T17:45:06;15.13;;;9.03;;
7047;SDS011;3565;53.254;10.352;2024-03-02T17:50:13;18.60;;;9.67;;
7047;SDS011;3565;53.254;10.352;2024-03-02T17:52:43;14.73;;;9.27;;
7047;SDS011;3565;53.254;10.352;2024-03-02T17:55:13;14.13;;;9.60;;
7047;SDS011;3565;53.254;10.352;2024-03-02T18:00:22;18.20;;;11.00;;
7047;SDS011;3565;53.254;10.352;2024-03-02T18:05:28;17.40;;;10.50;;
7047;SDS011;3565;53.254;10.352;2024-03-02T18:10:34;18.97;;;11.20;;
7047;SDS011;3565;53.254;10.352;2024-03-02T18:13:04;19.43;;;10.93;;
7047;SDS011;3565;53.254;10.352;2024-03-02T18:15:33;18.43;;;11.23;;
7047;SDS011;3565;53.254;10.352;2024-03-02T18:18:03;19.13;;;11.60;;
7047;SDS011;3565;53.254;10.352;2024-03-02T18:20:32;18.43;;;11.83;;
7047;SDS011;3565;53.254;10.352;2024-03-02T18:23:01;20.93;;;11.50;;
7047;SDS011;3565;53.254;10.352;2024-03-02T18:25:30;19.47;;;10.63;;
7047;SDS011;3565;53.254;10.352;2024-03-02T18:30:37;19.30;;;11.60;;
7047;SDS011;3565;53.254;10.352;2024-03-02T18:33:06;18.37;;;11.77;;
7047;SDS011;3565;53.254;10.352;2024-03-02T18:35:35;19.80;;;12.07;;
7047;SDS011;3565;53.254;10.352;2024-03-02T18:38:04;17.83;;;10.70;;
7047;SDS011;3565;53.254;10.352;2024-03-02T18:40:33;18.10;;;11.30;;
7047;SDS011;3565;53.254;10.352;2024-03-02T18:43:02;18.90;;;11.37;;
7047;SDS011;3565;53.254;10.352;2024-03-02T18:45:32;20.53;;;12.07;;
7047;SDS011;3565;53.254;10.352;2024-03-02T18:48:01;24.97;;;13.30;;
7047;SDS011;3565;53.254;10.352;2024-03-02T18:50:30;28.90;;;16.53;;
7047;SDS011;3565;53.254;10.352;2024-03-02T18:55:37;21.10;;;13.47;;
7047;SDS011;3565;53.254;10.352;2024-03-02T18:58:06;22.13;;;12.90;;
7047;SDS011;3565;53.254;10.352;2024-03-02T19:00:35;24.20;;;13.13;;
7047;SDS011;3565;53.254;10.352;2024-03-02T19:05:41;21.47;;;13.03;;
7047;SDS011;3565;53.254;10.352;2024-03-02T19:08:10;21.13;;;13.07;;
7047;SDS011;3565;53.254;10.352;2024-03-02T19:13:19;23.63;;;13.23;;
7047;SDS011;3565;53.254;10.352;2024-03-02T19:15:50;25.80;;;15.07;;
7047;SDS011;3565;53.254;10.352;2024-03-02T19:20:56;23.97;;;14.80;;